• Join FlightAware (Why Join?)
  • Login
  • US Flag 
04:22PM EST


 

Airport Tracker/Info


-or-


 

Live Flight TrackerFlight Track Log ✈ N719JB ✈ 11-Jun-2013 ✈ KIAD - KISP

Flight Track Log - Related Links

Times and Time Zones

All times are in EDT time to prevent confusion due to time zone crossing. See the N719JB flight status page for this flight to view local times or setup timezone preferences in your user account.

Time Position Orientation Groundspeed Altitude Reporting Facility
EDT Latitude Longitude Course Direction KTS MPH feet Rate Location/Type
10:48AM 38.9667 -77.4833 345° North 206 237 2,800  Level Potomac TRACON
10:49AM 39.0167 -77.5000 345° North 235 270 6,000 3,000 Climbing Potomac TRACON
10:50AM 39.0833 -77.4833 11° North 275 316 8,900 1,980 Climbing Potomac TRACON
10:51AM 39.1333 -77.4000 52° Northeast 315 362 10,000 600 Climbing Potomac TRACON
10:52AM 39.2000 -77.3000 49° Northeast 372 428 10,100 1,440 Climbing Potomac TRACON
10:53AM 39.2667 -77.1833 54° Northeast 385 443 12,900 1,500 Climbing Potomac TRACON
10:55AM 39.2961 -76.8842 83° East 404 465 15,000 600 Climbing Washington Center
10:56AM 39.2853 -76.7339 95° East 404 465 15,000  Level Washington Center
10:57AM 39.2594 -76.5861 103° East 411 473 15,000 360 Level Washington Center
10:58AM 39.2208 -76.4408 109° East 411 473 15,800 1,920 Climbing Washington Center
10:59AM 39.1844 -76.2931 108° East 418 481 18,900 2,520 Climbing Washington Center
11:00AM 39.1539 -76.1375 104° East 433 498 20,900 1,260 Climbing Washington Center
11:01AM 39.1150 -75.9794 108° East 444 511 21,400 1,020 Climbing Washington Center
11:02AM 39.0778 -75.8269 107° East 451 519 23,000 780 Climbing Washington Center
11:03AM 39.0572 -75.6692 99° East 445 512 23,000  Level Washington Center
11:04AM 39.0653 -75.5086 86° East 440 506 23,000 -60 Level Washington Center
11:05AM 39.0881 -75.3644 84° East 447 514 22,900  Descending Washington Center
11:06AM 39.1442 -75.2197 63° Northeast 442 509 23,000  Climbing Washington Center
11:07AM 39.1956 -75.0775 65° Northeast 442 509 23,000  Level Washington Center
11:08AM 39.2469 -74.9269 66° East 442 509 23,000  Level Washington Center
11:09AM 39.3003 -74.7789 65° Northeast 442 509 23,000 -60 Level Washington Center
11:11AM 39.4139 -74.4603 65° Northeast 443 510 22,900 -300 Descending New York Center
11:12AM 39.4664 -74.3097 66° East 444 511 22,100 -900 Descending New York Center
11:13AM 39.5167 -74.1617 66° East 444 511 21,100 -600 Descending New York Center
11:14AM 39.5892 -74.0331 54° Northeast 444 511 21,000 -540 Descending New York Center
11:15AM 39.6717 -73.9100 49° Northeast 438 504 20,100 -1,200 Descending New York Center
11:16AM 39.7581 -73.7953 46° Northeast 443 510 18,700 -1,620 Descending New York Center
11:17AM 39.8464 -73.6828 44° Northeast 436 502 17,000 -960 Descending New York Center
11:18AM 39.9347 -73.5700 44° Northeast 436 502 16,900  Descending New York Center
11:19AM 40.0247 -73.4572 44° Northeast 441 507 17,000 -240 Climbing New York Center
11:20AM 40.1022 -73.3544 45° Northeast 449 517 16,500 -1,920 Descending New York Center
11:21AM 40.1858 -73.2461 45° Northeast 408 470 13,300 -3,060 Descending New York Center
11:23AM 40.2789 -73.1200 46° Northeast 360 414 9,400 -1,500 Descending Boston Center
11:24AM 40.3833 -72.9833 45° Northeast 360 414 9,000 -840 Descending New York TRACON
11:25AM 40.4667 -72.9333 25° Northeast 310 357 7,400 -1,620 Descending New York TRACON
11:26AM 40.5500 -72.9167 North 275 316 5,800 -1,560 Descending New York TRACON
11:27AM 40.6167 -72.8833 21° North 276 318 4,300 -900 Descending New York TRACON
11:28AM 40.7000 -72.9000 351° North 262 302 4,000 -300 Descending New York TRACON
11:29AM 40.7667 -72.9167 349° North 265 305 3,800 -1,080 Descending New York TRACON
11:30AM 40.8167 -72.9667 323° Northwest 212 244 1,900 -1,260 Descending New York TRACON
11:31AM 40.8333 -73.0333 288° West 169 194 1,300 -660 Descending New York TRACON
11:32AM 40.8167 -73.0667 237° Southwest 135 155 600 -720 Descending New York TRACON